createdAt,value
2022-08-08T00:01:22.136Z,100927.81
2022-08-08T00:04:19.382Z,100923.75
2022-08-08T00:06:58.609Z,100923.88
2022-08-08T00:09:44.655Z,100912.59
2022-08-08T00:12:23.720Z,100911.09
2022-08-08T00:15:03.212Z,100923.06
2022-08-08T00:18:01.643Z,100932.69
2022-08-08T00:20:37.188Z,100918.81
2022-08-08T00:23:08.523Z,100922.69
2022-08-08T00:25:46.390Z,100921.75
2022-08-08T00:28:34.995Z,100928.69
2022-08-08T00:32:28.491Z,100923.50
2022-08-08T00:34:36.888Z,100925.97
2022-08-08T00:37:45.294Z,100923.81
2022-08-08T00:41:08.977Z,100927.19
2022-08-08T00:43:46.048Z,100919.97
2022-08-08T00:47:14.132Z,100921.44
2022-08-08T00:50:53.421Z,100935.75
2022-08-08T00:53:57.301Z,100925.88
2022-08-08T00:57:19.659Z,100918.56
2022-08-08T01:00:14.374Z,100919.28
2022-08-08T01:04:02.188Z,100916.41
2022-08-08T01:07:08.686Z,100925.03
2022-08-08T01:10:44.394Z,100917.94
2022-08-08T01:13:58.381Z,100929.31
2022-08-08T01:16:59.156Z,100921.38
2022-08-08T01:20:03.929Z,100924.63
2022-08-08T01:23:06.953Z,100914.91
2022-08-08T01:26:28.461Z,100922.09
2022-08-08T01:29:59.864Z,100913.50
2022-08-08T01:33:27.880Z,100919.59
2022-08-08T01:36:41.935Z,100921.53
2022-08-08T01:39:28.452Z,100919.63
2022-08-08T01:42:15.027Z,100913.41
2022-08-08T01:45:03.386Z,100912.69
2022-08-08T01:48:16.917Z,100902.78
2022-08-08T01:50:53.284Z,100906.28
2022-08-08T01:55:16.306Z,100912.25
2022-08-08T01:56:52.714Z,100916.34
2022-08-08T02:00:01.091Z,100921.97
2022-08-08T02:02:57.136Z,100919.84
2022-08-08T02:05:56.551Z,100920.28
2022-08-08T02:08:45.578Z,100926.41
2022-08-08T02:11:53.423Z,100930.44
2022-08-08T02:14:29.594Z,100931.09
2022-08-08T02:17:04.271Z,100932.34
2022-08-08T02:20:07.326Z,100933.22
2022-08-08T02:22:52.607Z,100934.28
2022-08-08T02:25:43.714Z,100934.28
2022-08-08T02:28:34.735Z,100938.94
2022-08-08T02:31:43.527Z,100938.97
2022-08-08T02:34:09.821Z,100941.63
2022-08-08T02:36:58.504Z,100952.44
2022-08-08T02:39:58.420Z,100950.50
2022-08-08T02:44:34.731Z,100945.41
2022-08-08T02:46:00.726Z,100944.59
2022-08-08T02:48:55.222Z,100945.81
2022-08-08T02:51:56.476Z,100951.28
2022-08-08T02:54:57.347Z,100944.47
2022-08-08T02:58:02.787Z,100956.03
2022-08-08T03:01:01.762Z,100962.06
2022-08-08T03:05:04.493Z,100957.69
2022-08-08T03:07:41.421Z,100947.06
2022-08-08T03:10:44.388Z,100954.88
2022-08-08T03:16:00.661Z,100952.81
2022-08-08T03:16:43.573Z,100955.72
2022-08-08T03:19:50.502Z,100953.34
2022-08-08T03:22:38.302Z,100956.97
2022-08-08T03:25:17.786Z,100960.81
2022-08-08T03:27:56.685Z,100961.63
2022-08-08T03:30:27.166Z,100958.94
2022-08-08T03:33:56.153Z,100964.97
2022-08-08T03:36:04.427Z,100957.41
2022-08-08T03:38:57.739Z,100961.16
2022-08-08T03:42:12.232Z,100958.94
2022-08-08T03:44:25.682Z,100953.03
2022-08-08T03:46:55.275Z,100956.31
2022-08-08T03:49:58.240Z,100953.94
2022-08-08T03:52:17.014Z,100963.22
2022-08-08T03:55:02.078Z,100961.38
2022-08-08T03:58:30.601Z,100964.69
2022-08-08T04:00:30.483Z,100975.50
2022-08-08T04:03:11.683Z,100967.41
2022-08-08T04:05:49.663Z,100972.47
2022-08-08T04:08:33.346Z,100965.25
2022-08-08T04:11:11.486Z,100973.78
2022-08-08T04:14:03.875Z,100980.09
2022-08-08T04:16:40.929Z,100981.56
2022-08-08T04:19:25.100Z,100984.53
2022-08-08T04:22:00.239Z,100985.81
2022-08-08T04:24:36.610Z,100984.38
2022-08-08T04:27:19.343Z,100981.06
2022-08-08T04:30:00.745Z,100989.81
2022-08-08T04:32:37.358Z,100987.22
2022-08-08T04:35:13.219Z,100995.00
2022-08-08T04:37:43.722Z,100996.06
2022-08-08T04:40:18.842Z,100992.34
2022-08-08T04:42:57.349Z,100997.94
2022-08-08T04:45:41.392Z,101002.53
2022-08-08T04:48:11.263Z,101004.38
2022-08-08T04:50:46.006Z,101011.75
2022-08-08T04:54:27.536Z,101018.44
2022-08-08T04:56:09.123Z,101015.06
2022-08-08T04:58:38.134Z,101025.59
2022-08-08T05:01:10.906Z,101028.94
2022-08-08T05:04:11.360Z,101027.69
2022-08-08T05:06:36.499Z,101033.00
2022-08-08T05:09:08.571Z,101031.66
2022-08-08T05:11:40.792Z,101027.09
2022-08-08T05:14:14.844Z,101031.50
2022-08-08T05:17:00.659Z,101033.63
2022-08-08T05:20:10.530Z,101032.84
2022-08-08T05:22:23.681Z,101036.31
2022-08-08T05:24:56.247Z,101041.38
2022-08-08T05:27:25.655Z,101043.34
2022-08-08T05:29:54.939Z,101045.63
2022-08-08T05:32:36.585Z,101047.13
2022-08-08T05:35:07.228Z,101049.97
2022-08-08T05:37:53.694Z,101049.69
2022-08-08T05:40:29.692Z,101052.38
2022-08-08T05:43:40.204Z,101054.44
2022-08-08T05:46:03.256Z,101057.44
2022-08-08T05:48:36.063Z,101060.41
2022-08-08T05:51:13.212Z,101060.25
2022-08-08T05:54:24.452Z,101062.63
2022-08-08T05:56:42.439Z,101062.66
2022-08-08T05:59:58.993Z,101073.44
2022-08-08T06:02:33.832Z,101079.94
2022-08-08T06:05:33.037Z,101075.06
2022-08-08T06:08:02.522Z,101079.00
2022-08-08T06:10:34.745Z,101088.44
2022-08-08T06:13:08.172Z,101082.22
2022-08-08T06:15:51.181Z,101082.19
2022-08-08T06:18:29.949Z,101090.69
2022-08-08T06:21:03.764Z,101092.53
2022-08-08T06:23:52.646Z,101089.03
2022-08-08T06:26:44.839Z,101102.28
2022-08-08T06:29:49.279Z,101099.63
2022-08-08T06:32:17.217Z,101102.63
2022-08-08T06:35:11.620Z,101106.00
2022-08-08T06:37:51.059Z,101107.91
2022-08-08T06:40:31.972Z,101111.22
2022-08-08T06:43:06.062Z,101106.78
2022-08-08T06:45:44.954Z,101114.50
2022-08-08T06:48:17.700Z,101109.34
2022-08-08T06:50:46.406Z,101110.19
2022-08-08T06:53:20.520Z,101107.06
2022-08-08T06:56:02.543Z,101107.78
2022-08-08T06:58:34.954Z,101114.34
2022-08-08T07:01:24.474Z,101117.63
2022-08-08T07:04:40.370Z,101121.03
2022-08-08T07:06:56.775Z,101117.16
2022-08-08T07:09:45.130Z,101129.91
2022-08-08T07:12:24.390Z,101118.63
2022-08-08T07:15:05.595Z,101128.63
2022-08-08T07:17:40.305Z,101126.72
2022-08-08T07:20:30.574Z,101126.91
2022-08-08T07:23:04.696Z,101134.31
2022-08-08T07:25:54.154Z,101128.47
2022-08-08T07:28:31.616Z,101132.97
2022-08-08T07:31:06.240Z,101134.06
2022-08-08T07:33:38.186Z,101130.84
2022-08-08T07:36:23.880Z,101134.28
2022-08-08T07:38:53.490Z,101132.75
2022-08-08T07:41:26.508Z,101133.16
2022-08-08T07:44:01.742Z,101133.09
2022-08-08T07:46:33.349Z,101130.75
2022-08-08T07:49:13.408Z,101136.28
2022-08-08T07:51:53.293Z,101135.63
2022-08-08T07:54:32.939Z,101134.44
2022-08-08T07:57:17.460Z,101136.34
2022-08-08T07:59:59.416Z,101139.59
2022-08-08T08:02:39.513Z,101134.22
2022-08-08T08:05:19.651Z,101143.06
2022-08-08T08:07:53.162Z,101144.03
2022-08-08T08:10:30.202Z,101139.13
2022-08-08T08:13:25.779Z,101144.72
2022-08-08T08:16:19.021Z,101148.31
2022-08-08T08:18:56.136Z,101148.34
2022-08-08T08:21:44.448Z,101147.97
2022-08-08T08:24:32.115Z,101140.88
2022-08-08T08:27:02.583Z,101140.25
2022-08-08T08:29:32.751Z,101147.50
2022-08-08T08:32:05.647Z,101140.38
2022-08-08T08:34:36.774Z,101147.53
2022-08-08T08:37:15.563Z,101139.25
2022-08-08T08:40:02.025Z,101145.84
2022-08-08T08:42:36.685Z,101146.56
2022-08-08T08:45:22.854Z,101144.41
2022-08-08T08:47:58.364Z,101130.50
2022-08-08T08:50:34.963Z,101144.03
2022-08-08T08:53:27.374Z,101135.50
2022-08-08T08:56:06.663Z,101130.38
2022-08-08T08:58:43.375Z,101132.97
2022-08-08T09:01:24.717Z,101131.22
2022-08-08T09:04:00.620Z,101141.09
2022-08-08T09:06:36.483Z,101142.09
2022-08-08T09:09:26.487Z,101143.75
2022-08-08T09:12:10.362Z,101139.97
2022-08-08T09:14:45.073Z,101131.44
2022-08-08T09:17:19.531Z,101133.09
2022-08-08T09:21:59.697Z,101126.59
2022-08-08T09:22:42.078Z,101142.38
2022-08-08T09:25:11.368Z,101135.28
2022-08-08T09:27:57.691Z,101135.53
2022-08-08T09:30:29.664Z,101133.44
2022-08-08T09:33:12.925Z,101139.19
2022-08-08T09:35:50.923Z,101131.34
2022-08-08T09:38:52.773Z,101131.69
2022-08-08T09:42:14.156Z,101136.97
2022-08-08T09:44:34.264Z,101126.41
2022-08-08T09:47:26.762Z,101127.66
2022-08-08T09:50:03.499Z,101127.03
2022-08-08T09:52:56.726Z,101124.56
2022-08-08T09:55:51.673Z,101125.75
2022-08-08T09:58:26.003Z,101123.72
2022-08-08T10:01:14.218Z,101123.72
2022-08-08T10:03:56.059Z,101118.94
2022-08-08T10:06:29.741Z,101114.50
2022-08-08T10:09:00.775Z,101120.53
2022-08-08T10:12:26.147Z,101110.38
2022-08-08T10:14:28.263Z,101113.25
2022-08-08T10:17:56.021Z,101110.75
2022-08-08T10:20:00.134Z,101096.47
2022-08-08T10:22:32.291Z,101096.78
2022-08-08T10:25:05.531Z,101088.88
2022-08-08T10:27:42.935Z,101082.59
2022-08-08T10:30:16.616Z,101085.81
2022-08-08T10:33:02.068Z,101087.84
2022-08-08T10:36:08.219Z,101079.34
2022-08-08T10:38:22.288Z,101080.81
2022-08-08T10:40:53.695Z,101088.13
2022-08-08T10:43:22.880Z,101075.09
2022-08-08T10:45:55.844Z,101071.44
2022-08-08T10:48:38.891Z,101065.03
2022-08-08T10:51:24.369Z,101073.88
2022-08-08T10:53:59.146Z,101072.28
2022-08-08T10:56:34.795Z,101069.16
2022-08-08T10:59:09.244Z,101059.81
2022-08-08T11:01:39.746Z,101041.75
2022-08-08T11:04:10.594Z,101037.25
2022-08-08T11:06:41.473Z,101057.19
2022-08-08T11:09:21.693Z,101064.25
2022-08-08T11:12:05.410Z,101064.97
2022-08-08T11:14:53.153Z,101053.81
2022-08-08T11:18:00.271Z,101034.97
2022-08-08T11:20:17.723Z,101057.75
2022-08-08T11:22:50.973Z,101055.03
2022-08-08T11:25:52.077Z,101053.56
2022-08-08T11:28:18.661Z,101053.03
2022-08-08T11:30:50.034Z,101037.91
2022-08-08T11:33:51.311Z,101043.53
2022-08-08T11:36:14.884Z,101040.94
2022-08-08T11:38:54.660Z,101051.00
2022-08-08T11:41:27.957Z,101041.00
2022-08-08T11:44:01.167Z,101053.84
2022-08-08T11:46:30.540Z,101047.41
2022-08-08T11:49:04.255Z,101043.81
2022-08-08T11:51:40.321Z,101046.66
2022-08-08T11:54:32.385Z,101035.97
2022-08-08T11:57:27.200Z,101032.34
2022-08-08T12:00:02.681Z,101030.75
2022-08-08T12:02:48.566Z,101028.69
2022-08-08T12:05:22.538Z,101032.34
2022-08-08T12:07:52.418Z,101025.16
2022-08-08T12:10:22.438Z,101026.56
2022-08-08T12:13:01.227Z,101019.34
2022-08-08T12:15:41.718Z,101018.66
2022-08-08T12:18:21.526Z,101009.31
2022-08-08T12:20:50.869Z,101011.47
2022-08-08T12:23:40.340Z,101016.53
2022-08-08T12:26:17.329Z,101015.03
2022-08-08T12:28:58.802Z,101010.00
2022-08-08T12:31:39.134Z,101006.38
2022-08-08T12:34:36.266Z,101004.16
2022-08-08T12:37:08.138Z,100996.38
2022-08-08T12:39:59.944Z,100985.56
2022-08-08T12:42:27.377Z,100997.09
2022-08-08T12:45:19.944Z,100990.56
2022-08-08T12:48:09.747Z,100986.16
2022-08-08T12:50:49.047Z,100994.78
2022-08-08T12:53:21.783Z,100991.25
2022-08-08T12:56:06.561Z,100986.22
2022-08-08T12:58:47.616Z,100986.84
2022-08-08T13:01:17.380Z,100983.38
2022-08-08T13:03:57.978Z,100976.84
2022-08-08T13:06:26.984Z,100978.84
2022-08-08T13:08:56.842Z,100987.09
2022-08-08T13:11:28.628Z,100986.56
2022-08-08T13:14:15.830Z,100977.53
2022-08-08T13:16:49.180Z,100976.00
2022-08-08T13:19:20.539Z,100975.88
2022-08-08T13:21:58.078Z,100973.00
2022-08-08T13:24:40.736Z,100975.44
2022-08-08T13:27:15.264Z,100979.03
2022-08-08T13:29:51.572Z,100976.09
2022-08-08T13:32:25.307Z,100971.13
2022-08-08T13:34:55.544Z,100971.91
2022-08-08T13:37:28.319Z,100971.16
2022-08-08T13:40:17.897Z,100963.25
2022-08-08T13:42:55.673Z,100963.72
2022-08-08T13:45:24.905Z,100965.19
2022-08-08T13:48:03.076Z,100960.16
2022-08-08T13:50:49.215Z,100964.41
2022-08-08T13:53:27.950Z,100956.56
2022-08-08T13:56:01.086Z,100963.19
2022-08-08T13:58:29.639Z,100961.06
2022-08-08T14:00:57.982Z,100973.16
2022-08-08T14:03:52.838Z,100956.06
2022-08-08T14:06:32.083Z,100958.09
2022-08-08T14:09:24.307Z,100956.47
2022-08-08T14:11:50.806Z,100965.06
2022-08-08T14:14:21.212Z,100952.94
2022-08-08T14:16:55.296Z,100959.63
2022-08-08T14:19:57.106Z,100945.94
2022-08-08T14:22:25.286Z,100953.88
2022-08-08T14:24:58.887Z,100960.22
2022-08-08T14:27:30.490Z,100954.50
2022-08-08T14:30:08.258Z,100951.75
2022-08-08T14:32:53.282Z,100945.94
2022-08-08T14:35:28.356Z,100945.81
2022-08-08T14:38:34.722Z,100944.44
2022-08-08T14:40:59.532Z,100951.56
2022-08-08T14:44:01.701Z,100933.78
2022-08-08T14:46:18.773Z,100950.28
2022-08-08T14:49:02.467Z,100940.88
2022-08-08T14:51:51.516Z,100926.56
2022-08-08T14:54:28.392Z,100939.47
2022-08-08T14:56:58.183Z,100932.97
2022-08-08T14:59:43.949Z,100932.31
2022-08-08T15:02:15.586Z,100935.88
2022-08-08T15:04:45.537Z,100931.56
2022-08-08T15:07:22.704Z,100928.59
2022-08-08T15:09:53.508Z,100927.75
2022-08-08T15:12:27.683Z,100927.72
2022-08-08T15:14:56.455Z,100922.84
2022-08-08T15:17:25.094Z,100919.22
2022-08-08T15:19:54.720Z,100925.53
2022-08-08T15:22:25.440Z,100918.22
2022-08-08T15:24:54.523Z,100928.88
2022-08-08T15:28:04.688Z,100932.47
2022-08-08T15:30:14.538Z,100922.19
2022-08-08T15:32:43.454Z,100916.44
2022-08-08T15:35:13.034Z,100922.19
2022-08-08T15:37:46.056Z,100924.91
2022-08-08T15:40:15.308Z,100920.91
2022-08-08T15:42:49.595Z,100918.97
2022-08-08T15:45:17.941Z,100923.31
2022-08-08T15:48:15.304Z,100923.53
2022-08-08T15:50:56.765Z,100921.84
2022-08-08T15:53:40.244Z,100925.41
2022-08-08T15:56:16.635Z,100918.78
2022-08-08T15:58:49.033Z,100915.88
2022-08-08T16:01:18.097Z,100912.88
2022-08-08T16:03:48.299Z,100919.09
2022-08-08T16:06:28.273Z,100912.56
2022-08-08T16:08:58.568Z,100911.50
2022-08-08T16:13:28.732Z,100917.41
2022-08-08T16:14:37.299Z,100912.53
2022-08-08T16:17:06.443Z,100910.22
2022-08-08T16:19:59.605Z,100903.84
2022-08-08T16:22:41.409Z,100906.41
2022-08-08T16:25:11.861Z,100909.34
2022-08-08T16:27:43.573Z,100904.28
2022-08-08T16:30:32.483Z,100905.19
2022-08-08T16:33:05.690Z,100909.94
2022-08-08T16:35:34.048Z,100907.84
2022-08-08T16:38:02.117Z,100905.56
2022-08-08T16:40:32.928Z,100904.09
2022-08-08T16:43:00.960Z,100902.66
2022-08-08T16:46:36.714Z,100906.81
2022-08-08T16:48:17.081Z,100905.59
2022-08-08T16:50:46.459Z,100900.09
2022-08-08T16:55:02.812Z,100899.72
2022-08-08T16:56:05.892Z,100899.78
2022-08-08T16:58:42.334Z,100896.88
2022-08-08T17:01:12.886Z,100899.97
2022-08-08T17:04:00.182Z,100900.00
2022-08-08T17:06:43.997Z,100906.03
2022-08-08T17:09:15.360Z,100896.53
2022-08-08T17:11:48.570Z,100894.03
2022-08-08T17:14:19.662Z,100890.41
2022-08-08T17:16:58.542Z,100900.56
2022-08-08T17:19:29.065Z,100898.44
2022-08-08T17:22:00.972Z,100896.22
2022-08-08T17:24:31.024Z,100906.00
2022-08-08T17:27:02.681Z,100902.91
2022-08-08T17:29:36.536Z,100905.00
2022-08-08T17:32:11.833Z,100904.41
2022-08-08T17:35:52.404Z,100912.22
2022-08-08T17:37:28.044Z,100917.44
2022-08-08T17:40:05.608Z,100924.81
2022-08-08T17:42:47.347Z,100924.09
2022-08-08T17:45:22.406Z,100929.53
2022-08-08T17:47:53.889Z,100925.69
2022-08-08T17:50:22.610Z,100920.69
2022-08-08T17:52:50.831Z,100916.25
2022-08-08T17:56:03.955Z,100927.19
2022-08-08T17:58:08.274Z,100928.91
2022-08-08T18:00:39.034Z,100920.78
2022-08-08T18:03:13.603Z,100929.03
2022-08-08T18:05:48.670Z,100925.69
2022-08-08T18:08:37.706Z,100928.19
2022-08-08T18:11:15.135Z,100929.41
2022-08-08T18:13:47.757Z,100926.50
2022-08-08T18:16:22.977Z,100929.16
2022-08-08T18:18:56.029Z,100937.38
2022-08-08T18:21:35.531Z,100949.16
2022-08-08T18:24:18.810Z,100952.13
2022-08-08T18:26:53.800Z,100941.09
2022-08-08T18:29:29.906Z,100949.91
2022-08-08T18:32:03.319Z,100956.81
2022-08-08T18:34:33.390Z,100954.00
2022-08-08T18:37:02.994Z,100952.78
2022-08-08T18:39:34.662Z,100949.00
2022-08-08T18:42:13.007Z,100951.25
2022-08-08T18:44:55.916Z,100958.53
2022-08-08T18:47:26.663Z,100958.47
2022-08-08T18:49:58.935Z,100970.09
2022-08-08T18:52:29.768Z,100966.84
2022-08-08T18:55:09.506Z,100978.50
2022-08-08T18:57:44.666Z,100976.44
2022-08-08T19:00:19.682Z,100992.53
2022-08-08T19:02:57.152Z,101000.19
2022-08-08T19:05:38.506Z,100995.31
2022-08-08T19:08:24.472Z,100997.41
2022-08-08T19:10:56.509Z,100999.72
2022-08-08T19:13:25.436Z,101006.22
2022-08-08T19:16:18.657Z,101016.47
2022-08-08T19:18:53.203Z,101011.34
2022-08-08T19:21:47.802Z,101016.41
2022-08-08T19:24:39.254Z,101020.53
2022-08-08T19:27:06.577Z,101020.78
2022-08-08T19:29:42.195Z,101025.91
2022-08-08T19:32:13.125Z,101025.44
2022-08-08T19:34:51.322Z,101031.41
2022-08-08T19:37:43.436Z,101033.34
2022-08-08T19:40:16.248Z,101030.50
2022-08-08T19:42:45.694Z,101032.09
2022-08-08T19:45:14.065Z,101033.78
2022-08-08T19:48:03.172Z,101039.34
2022-08-08T19:50:33.002Z,101032.13
2022-08-08T19:53:01.046Z,101036.44
2022-08-08T19:55:34.039Z,101048.44
2022-08-08T19:58:02.677Z,101051.53
2022-08-08T20:00:34.376Z,101049.59
2022-08-08T20:03:14.323Z,101056.03
2022-08-08T20:06:14.703Z,101060.44
2022-08-08T20:08:47.603Z,101053.13
2022-08-08T20:11:16.530Z,101055.66
2022-08-08T20:14:11.988Z,101052.69
2022-08-08T20:16:36.247Z,101053.06
2022-08-08T20:19:08.677Z,101052.50
2022-08-08T20:21:38.293Z,101053.44
2022-08-08T20:24:07.910Z,101054.97
2022-08-08T20:26:38.434Z,101058.88
2022-08-08T20:29:10.954Z,101062.09
2022-08-08T20:32:02.463Z,101059.50
2022-08-08T20:34:31.926Z,101055.22
2022-08-08T20:37:02.558Z,101054.59
2022-08-08T20:39:39.795Z,101069.50
2022-08-08T20:42:20.433Z,101061.63
2022-08-08T20:44:56.342Z,101064.81
2022-08-08T20:47:25.347Z,101074.03
2022-08-08T20:49:57.714Z,101068.06
2022-08-08T20:52:27.816Z,101066.88
2022-08-08T20:54:56.359Z,101070.72
2022-08-08T20:57:25.371Z,101073.34
2022-08-08T20:59:57.336Z,101074.94
2022-08-08T21:02:27.909Z,101077.47
2022-08-08T21:05:01.168Z,101083.44
2022-08-08T21:08:04.101Z,101085.19
2022-08-08T21:10:20.810Z,101081.88
2022-08-08T21:12:54.166Z,101079.34
2022-08-08T21:16:06.200Z,101084.69
2022-08-08T21:18:12.086Z,101086.78
2022-08-08T21:20:42.370Z,101086.31
2022-08-08T21:23:13.148Z,101088.38
2022-08-08T21:25:48.752Z,101086.72
2022-08-08T21:28:33.515Z,101080.94
2022-08-08T21:31:05.913Z,101080.19
2022-08-08T21:33:50.532Z,101083.06
2022-08-08T21:36:21.737Z,101077.16
2022-08-08T21:38:57.432Z,101070.56
2022-08-08T21:41:38.340Z,101071.63
2022-08-08T21:44:14.679Z,101075.69
2022-08-08T21:48:01.469Z,101074.22
2022-08-08T21:49:34.025Z,101071.19
2022-08-08T21:54:36.675Z,101071.00
2022-08-08T21:55:03.101Z,101074.00
2022-08-08T21:57:42.996Z,101073.41
2022-08-08T22:00:14.247Z,101073.00
2022-08-08T22:02:44.272Z,101068.69
2022-08-08T22:05:14.970Z,101076.47
2022-08-08T22:07:48.143Z,101076.06
2022-08-08T22:10:32.220Z,101080.13
2022-08-08T22:13:18.694Z,101078.88
2022-08-08T22:15:58.482Z,101078.38
2022-08-08T22:18:30.365Z,101076.16
2022-08-08T22:20:59.557Z,101077.63
2022-08-08T22:23:38.369Z,101078.03
2022-08-08T22:26:26.637Z,101079.59
2022-08-08T22:29:13.338Z,101073.44
2022-08-08T22:31:58.588Z,101074.56
2022-08-08T22:34:30.782Z,101082.00
2022-08-08T22:36:59.590Z,101080.94
2022-08-08T22:39:46.277Z,101089.97
2022-08-08T22:42:26.984Z,101086.41
2022-08-08T22:44:56.089Z,101090.16
2022-08-08T22:47:34.235Z,101087.84
2022-08-08T22:50:09.861Z,101084.94
2022-08-08T22:53:22.464Z,101089.97
2022-08-08T22:55:58.329Z,101092.06
2022-08-08T22:58:29.177Z,101090.88
2022-08-08T23:01:00.057Z,101094.44
2022-08-08T23:03:34.193Z,101092.75
2022-08-08T23:06:17.167Z,101088.56
2022-08-08T23:08:55.410Z,101088.44
2022-08-08T23:11:31.181Z,101093.69
2022-08-08T23:14:17.809Z,101084.72
2022-08-08T23:16:54.768Z,101087.41
2022-08-08T23:19:26.245Z,101104.53
2022-08-08T23:21:54.355Z,101095.13
2022-08-08T23:24:23.680Z,101104.34
2022-08-08T23:26:56.013Z,101100.97
2022-08-08T23:29:27.014Z,101108.56
2022-08-08T23:31:57.976Z,101110.69
2022-08-08T23:34:26.239Z,101112.53
2022-08-08T23:36:58.206Z,101106.38
2022-08-08T23:39:32.380Z,101098.63
2022-08-08T23:42:11.671Z,101100.13
2022-08-08T23:44:39.606Z,101093.22
2022-08-08T23:49:00.409Z,101097.47
2022-08-08T23:50:01.136Z,101095.31
2022-08-08T23:52:32.150Z,101088.09
2022-08-08T23:55:14.697Z,101086.94
2022-08-08T23:57:52.820Z,101090.50
